sensor_id;sensor_type;location;lat;lon;timestamp;P1;durP1;ratioP1;P2;durP2;ratioP2
5929;SDS011;2990;48.746;9.236;2023-09-19T00:01:28;0.30;;;0.30;;
5929;SDS011;2990;48.746;9.236;2023-09-19T00:03:55;0.22;;;0.22;;
5929;SDS011;2990;48.746;9.236;2023-09-19T00:06:22;0.52;;;0.28;;
5929;SDS011;2990;48.746;9.236;2023-09-19T00:08:51;0.20;;;0.20;;
5929;SDS011;2990;48.746;9.236;2023-09-19T00:11:18;0.20;;;0.20;;
5929;SDS011;2990;48.746;9.236;2023-09-19T00:13:43;0.20;;;0.20;;
5929;SDS011;2990;48.746;9.236;2023-09-19T00:16:09;0.17;;;0.17;;
5929;SDS011;2990;48.746;9.236;2023-09-19T00:18:36;0.20;;;0.20;;
5929;SDS011;2990;48.746;9.236;2023-09-19T00:21:02;0.30;;;0.30;;
5929;SDS011;2990;48.746;9.236;2023-09-19T00:23:29;0.17;;;0.17;;
5929;SDS011;2990;48.746;9.236;2023-09-19T00:25:59;0.28;;;0.28;;
5929;SDS011;2990;48.746;9.236;2023-09-19T00:28:25;0.15;;;0.15;;
5929;SDS011;2990;48.746;9.236;2023-09-19T00:30:51;0.30;;;0.22;;
5929;SDS011;2990;48.746;9.236;2023-09-19T00:33:19;0.20;;;0.20;;
5929;SDS011;2990;48.746;9.236;2023-09-19T00:38:14;0.20;;;0.20;;
5929;SDS011;2990;48.746;9.236;2023-09-19T00:40:45;0.30;;;0.30;;
5929;SDS011;2990;48.746;9.236;2023-09-19T00:43:11;0.20;;;0.20;;
5929;SDS011;2990;48.746;9.236;2023-09-19T00:45:37;1.67;;;0.20;;
5929;SDS011;2990;48.746;9.236;2023-09-19T00:48:03;0.38;;;0.30;;
5929;SDS011;2990;48.746;9.236;2023-09-19T00:50:32;0.30;;;0.30;;
5929;SDS011;2990;48.746;9.236;2023-09-19T00:52:58;0.30;;;0.30;;
5929;SDS011;2990;48.746;9.236;2023-09-19T00:55:24;0.20;;;0.20;;
5929;SDS011;2990;48.746;9.236;2023-09-19T00:57:50;0.20;;;0.20;;
5929;SDS011;2990;48.746;9.236;2023-09-19T01:00:17;0.20;;;0.20;;
5929;SDS011;2990;48.746;9.236;2023-09-19T01:02:45;0.20;;;0.20;;
5929;SDS011;2990;48.746;9.236;2023-09-19T01:05:11;0.20;;;0.20;;
5929;SDS011;2990;48.746;9.236;2023-09-19T01:07:38;0.20;;;0.20;;
5929;SDS011;2990;48.746;9.236;2023-09-19T01:10:16;1.10;;;0.22;;
5929;SDS011;2990;48.746;9.236;2023-09-19T01:15:27;0.20;;;0.20;;
5929;SDS011;2990;48.746;9.236;2023-09-19T01:17:59;0.63;;;0.35;;
5929;SDS011;2990;48.746;9.236;2023-09-19T01:20:37;0.30;;;0.20;;
5929;SDS011;2990;48.746;9.236;2023-09-19T01:23:23;0.20;;;0.20;;
5929;SDS011;2990;48.746;9.236;2023-09-19T01:26:17;0.82;;;0.20;;
5929;SDS011;2990;48.746;9.236;2023-09-19T01:31:22;0.10;;;0.10;;
5929;SDS011;2990;48.746;9.236;2023-09-19T01:33:56;1.42;;;0.22;;
5929;SDS011;2990;48.746;9.236;2023-09-19T01:36:24;0.20;;;0.20;;
5929;SDS011;2990;48.746;9.236;2023-09-19T01:38:51;0.20;;;0.20;;
5929;SDS011;2990;48.746;9.236;2023-09-19T01:41:17;0.20;;;0.20;;
5929;SDS011;2990;48.746;9.236;2023-09-19T01:43:47;0.43;;;0.30;;
5929;SDS011;2990;48.746;9.236;2023-09-19T01:46:24;0.30;;;0.30;;
5929;SDS011;2990;48.746;9.236;2023-09-19T01:48:58;2.70;;;0.40;;
5929;SDS011;2990;48.746;9.236;2023-09-19T01:54:04;0.30;;;0.30;;
5929;SDS011;2990;48.746;9.236;2023-09-19T01:56:35;0.20;;;0.20;;
5929;SDS011;2990;48.746;9.236;2023-09-19T01:59:07;0.20;;;0.20;;
5929;SDS011;2990;48.746;9.236;2023-09-19T02:01:36;0.20;;;0.20;;
5929;SDS011;2990;48.746;9.236;2023-09-19T02:04:03;0.10;;;0.10;;
5929;SDS011;2990;48.746;9.236;2023-09-19T02:06:29;0.32;;;0.30;;
5929;SDS011;2990;48.746;9.236;2023-09-19T02:08:55;0.22;;;0.22;;
5929;SDS011;2990;48.746;9.236;2023-09-19T02:11:21;0.17;;;0.17;;
5929;SDS011;2990;48.746;9.236;2023-09-19T02:13:47;0.20;;;0.20;;
5929;SDS011;2990;48.746;9.236;2023-09-19T02:16:16;0.20;;;0.20;;
5929;SDS011;2990;48.746;9.236;2023-09-19T02:18:45;0.20;;;0.20;;
5929;SDS011;2990;48.746;9.236;2023-09-19T02:21:11;0.20;;;0.20;;
5929;SDS011;2990;48.746;9.236;2023-09-19T02:23:37;0.10;;;0.10;;
5929;SDS011;2990;48.746;9.236;2023-09-19T02:26:03;0.43;;;0.43;;
5929;SDS011;2990;48.746;9.236;2023-09-19T02:28:30;0.75;;;0.20;;
5929;SDS011;2990;48.746;9.236;2023-09-19T02:30:57;0.20;;;0.20;;
5929;SDS011;2990;48.746;9.236;2023-09-19T02:33:22;0.20;;;0.20;;
5929;SDS011;2990;48.746;9.236;2023-09-19T02:35:48;0.20;;;0.20;;
5929;SDS011;2990;48.746;9.236;2023-09-19T02:38:15;0.20;;;0.20;;
5929;SDS011;2990;48.746;9.236;2023-09-19T02:40:45;0.20;;;0.20;;
5929;SDS011;2990;48.746;9.236;2023-09-19T02:43:11;0.30;;;0.30;;
5929;SDS011;2990;48.746;9.236;2023-09-19T02:45:37;2.05;;;0.20;;
5929;SDS011;2990;48.746;9.236;2023-09-19T02:48:02;0.20;;;0.20;;
5929;SDS011;2990;48.746;9.236;2023-09-19T02:50:29;0.22;;;0.22;;
5929;SDS011;2990;48.746;9.236;2023-09-19T02:52:54;0.20;;;0.20;;
5929;SDS011;2990;48.746;9.236;2023-09-19T02:55:20;0.20;;;0.20;;
5929;SDS011;2990;48.746;9.236;2023-09-19T02:57:50;0.35;;;0.35;;
5929;SDS011;2990;48.746;9.236;2023-09-19T03:00:17;0.20;;;0.20;;
5929;SDS011;2990;48.746;9.236;2023-09-19T03:02:53;0.20;;;0.20;;
5929;SDS011;2990;48.746;9.236;2023-09-19T03:05:20;0.20;;;0.20;;
5929;SDS011;2990;48.746;9.236;2023-09-19T03:07:46;0.20;;;0.20;;
5929;SDS011;2990;48.746;9.236;2023-09-19T03:10:16;0.22;;;0.22;;
5929;SDS011;2990;48.746;9.236;2023-09-19T03:12:42;0.20;;;0.20;;
5929;SDS011;2990;48.746;9.236;2023-09-19T03:15:08;0.30;;;0.30;;
5929;SDS011;2990;48.746;9.236;2023-09-19T03:17:34;0.43;;;0.43;;
5929;SDS011;2990;48.746;9.236;2023-09-19T03:20:00;0.20;;;0.20;;
5929;SDS011;2990;48.746;9.236;2023-09-19T03:22:27;0.75;;;0.20;;
5929;SDS011;2990;48.746;9.236;2023-09-19T03:24:52;0.40;;;0.40;;
5929;SDS011;2990;48.746;9.236;2023-09-19T03:27:18;0.20;;;0.20;;
5929;SDS011;2990;48.746;9.236;2023-09-19T03:29:45;0.38;;;0.32;;
5929;SDS011;2990;48.746;9.236;2023-09-19T03:32:11;0.20;;;0.20;;
5929;SDS011;2990;48.746;9.236;2023-09-19T03:34:37;0.30;;;0.30;;
5929;SDS011;2990;48.746;9.236;2023-09-19T03:37:07;0.20;;;0.20;;
5929;SDS011;2990;48.746;9.236;2023-09-19T03:39:32;0.30;;;0.30;;
5929;SDS011;2990;48.746;9.236;2023-09-19T03:41:58;0.20;;;0.20;;
5929;SDS011;2990;48.746;9.236;2023-09-19T03:44:23;0.20;;;0.20;;
5929;SDS011;2990;48.746;9.236;2023-09-19T03:46:49;0.20;;;0.20;;
5929;SDS011;2990;48.746;9.236;2023-09-19T03:49:14;0.20;;;0.20;;
5929;SDS011;2990;48.746;9.236;2023-09-19T03:51:40;0.40;;;0.40;;
5929;SDS011;2990;48.746;9.236;2023-09-19T03:54:06;0.40;;;0.40;;
5929;SDS011;2990;48.746;9.236;2023-09-19T03:56:32;0.73;;;0.30;;
5929;SDS011;2990;48.746;9.236;2023-09-19T03:58:58;0.63;;;0.28;;
5929;SDS011;2990;48.746;9.236;2023-09-19T04:01:23;0.30;;;0.30;;
5929;SDS011;2990;48.746;9.236;2023-09-19T04:03:49;0.30;;;0.30;;
5929;SDS011;2990;48.746;9.236;2023-09-19T04:06:16;0.20;;;0.20;;
5929;SDS011;2990;48.746;9.236;2023-09-19T04:08:43;0.43;;;0.38;;
5929;SDS011;2990;48.746;9.236;2023-09-19T04:11:09;1.10;;;0.35;;
5929;SDS011;2990;48.746;9.236;2023-09-19T04:13:35;0.30;;;0.30;;
5929;SDS011;2990;48.746;9.236;2023-09-19T04:16:01;0.82;;;0.45;;
5929;SDS011;2990;48.746;9.236;2023-09-19T04:18:28;0.30;;;0.30;;
5929;SDS011;2990;48.746;9.236;2023-09-19T04:20:57;1.17;;;0.30;;
5929;SDS011;2990;48.746;9.236;2023-09-19T04:23:23;0.25;;;0.25;;
5929;SDS011;2990;48.746;9.236;2023-09-19T04:25:48;1.95;;;0.32;;
5929;SDS011;2990;48.746;9.236;2023-09-19T04:28:15;0.47;;;0.47;;
5929;SDS011;2990;48.746;9.236;2023-09-19T04:30:40;0.30;;;0.30;;
5929;SDS011;2990;48.746;9.236;2023-09-19T04:33:06;0.22;;;0.22;;
5929;SDS011;2990;48.746;9.236;2023-09-19T04:35:32;0.40;;;0.40;;
5929;SDS011;2990;48.746;9.236;2023-09-19T04:37:58;0.30;;;0.30;;
5929;SDS011;2990;48.746;9.236;2023-09-19T04:40:24;0.20;;;0.20;;
5929;SDS011;2990;48.746;9.236;2023-09-19T04:42:54;0.65;;;0.40;;
5929;SDS011;2990;48.746;9.236;2023-09-19T04:45:26;0.40;;;0.40;;
5929;SDS011;2990;48.746;9.236;2023-09-19T04:47:52;0.40;;;0.40;;
5929;SDS011;2990;48.746;9.236;2023-09-19T04:50:18;0.32;;;0.32;;
5929;SDS011;2990;48.746;9.236;2023-09-19T04:52:46;0.30;;;0.30;;
5929;SDS011;2990;48.746;9.236;2023-09-19T04:55:15;0.30;;;0.30;;
5929;SDS011;2990;48.746;9.236;2023-09-19T04:57:51;0.28;;;0.28;;
5929;SDS011;2990;48.746;9.236;2023-09-19T05:00:20;0.40;;;0.40;;
5929;SDS011;2990;48.746;9.236;2023-09-19T05:02:50;0.30;;;0.30;;
5929;SDS011;2990;48.746;9.236;2023-09-19T05:05:16;0.40;;;0.40;;
5929;SDS011;2990;48.746;9.236;2023-09-19T05:07:42;0.30;;;0.30;;
5929;SDS011;2990;48.746;9.236;2023-09-19T05:10:09;0.30;;;0.30;;
5929;SDS011;2990;48.746;9.236;2023-09-19T05:12:37;0.38;;;0.38;;
5929;SDS011;2990;48.746;9.236;2023-09-19T05:15:04;0.30;;;0.30;;
5929;SDS011;2990;48.746;9.236;2023-09-19T05:17:32;0.20;;;0.20;;
5929;SDS011;2990;48.746;9.236;2023-09-19T05:20:01;0.30;;;0.30;;
5929;SDS011;2990;48.746;9.236;2023-09-19T05:22:31;0.40;;;0.40;;
5929;SDS011;2990;48.746;9.236;2023-09-19T05:24:57;0.45;;;0.45;;
5929;SDS011;2990;48.746;9.236;2023-09-19T05:27:23;0.38;;;0.32;;
5929;SDS011;2990;48.746;9.236;2023-09-19T05:29:49;2.03;;;0.30;;
5929;SDS011;2990;48.746;9.236;2023-09-19T05:32:18;0.50;;;0.30;;
5929;SDS011;2990;48.746;9.236;2023-09-19T05:34:44;0.40;;;0.40;;
5929;SDS011;2990;48.746;9.236;2023-09-19T05:37:10;0.38;;;0.38;;
5929;SDS011;2990;48.746;9.236;2023-09-19T05:39:36;0.38;;;0.38;;
5929;SDS011;2990;48.746;9.236;2023-09-19T05:42:02;0.30;;;0.30;;
5929;SDS011;2990;48.746;9.236;2023-09-19T05:44:28;0.45;;;0.45;;
5929;SDS011;2990;48.746;9.236;2023-09-19T05:46:54;0.40;;;0.40;;
5929;SDS011;2990;48.746;9.236;2023-09-19T05:49:21;0.50;;;0.50;;
5929;SDS011;2990;48.746;9.236;2023-09-19T05:51:47;0.50;;;0.50;;
5929;SDS011;2990;48.746;9.236;2023-09-19T05:54:12;0.30;;;0.30;;
5929;SDS011;2990;48.746;9.236;2023-09-19T05:56:38;0.40;;;0.40;;
5929;SDS011;2990;48.746;9.236;2023-09-19T05:59:03;0.32;;;0.32;;
5929;SDS011;2990;48.746;9.236;2023-09-19T06:01:30;0.35;;;0.35;;
5929;SDS011;2990;48.746;9.236;2023-09-19T06:03:57;1.10;;;0.50;;
5929;SDS011;2990;48.746;9.236;2023-09-19T06:06:24;1.00;;;0.50;;
5929;SDS011;2990;48.746;9.236;2023-09-19T06:08:50;0.50;;;0.50;;
5929;SDS011;2990;48.746;9.236;2023-09-19T06:11:16;0.40;;;0.40;;
5929;SDS011;2990;48.746;9.236;2023-09-19T06:13:41;0.40;;;0.40;;
5929;SDS011;2990;48.746;9.236;2023-09-19T06:16:07;0.38;;;0.38;;
5929;SDS011;2990;48.746;9.236;2023-09-19T06:18:34;0.90;;;0.30;;
5929;SDS011;2990;48.746;9.236;2023-09-19T06:21:00;0.40;;;0.40;;
5929;SDS011;2990;48.746;9.236;2023-09-19T06:23:30;0.30;;;0.30;;
5929;SDS011;2990;48.746;9.236;2023-09-19T06:25:55;0.40;;;0.40;;
5929;SDS011;2990;48.746;9.236;2023-09-19T06:28:21;0.40;;;0.32;;
5929;SDS011;2990;48.746;9.236;2023-09-19T06:30:50;0.38;;;0.38;;
5929;SDS011;2990;48.746;9.236;2023-09-19T06:33:16;0.40;;;0.40;;
5929;SDS011;2990;48.746;9.236;2023-09-19T06:35:43;1.17;;;0.43;;
5929;SDS011;2990;48.746;9.236;2023-09-19T06:38:09;0.40;;;0.40;;
5929;SDS011;2990;48.746;9.236;2023-09-19T06:40:38;0.50;;;0.45;;
5929;SDS011;2990;48.746;9.236;2023-09-19T06:43:03;0.52;;;0.50;;
5929;SDS011;2990;48.746;9.236;2023-09-19T06:45:30;0.50;;;0.50;;
5929;SDS011;2990;48.746;9.236;2023-09-19T06:47:57;1.60;;;0.50;;
5929;SDS011;2990;48.746;9.236;2023-09-19T06:50:23;0.40;;;0.40;;
5929;SDS011;2990;48.746;9.236;2023-09-19T06:52:49;0.77;;;0.60;;
5929;SDS011;2990;48.746;9.236;2023-09-19T06:55:16;0.50;;;0.50;;
5929;SDS011;2990;48.746;9.236;2023-09-19T06:57:44;0.50;;;0.50;;
5929;SDS011;2990;48.746;9.236;2023-09-19T07:00:10;0.60;;;0.60;;
5929;SDS011;2990;48.746;9.236;2023-09-19T07:02:59;0.40;;;0.40;;
5929;SDS011;2990;48.746;9.236;2023-09-19T07:05:28;0.60;;;0.60;;
5929;SDS011;2990;48.746;9.236;2023-09-19T07:07:56;1.10;;;0.70;;
5929;SDS011;2990;48.746;9.236;2023-09-19T07:10:24;0.60;;;0.60;;
5929;SDS011;2990;48.746;9.236;2023-09-19T07:12:57;0.50;;;0.50;;
5929;SDS011;2990;48.746;9.236;2023-09-19T07:15:24;0.77;;;0.77;;
5929;SDS011;2990;48.746;9.236;2023-09-19T07:17:53;1.52;;;0.57;;
5929;SDS011;2990;48.746;9.236;2023-09-19T07:20:21;0.70;;;0.70;;
5929;SDS011;2990;48.746;9.236;2023-09-19T07:22:48;0.98;;;0.88;;
5929;SDS011;2990;48.746;9.236;2023-09-19T07:25:15;0.52;;;0.50;;
5929;SDS011;2990;48.746;9.236;2023-09-19T07:27:41;0.50;;;0.50;;
5929;SDS011;2990;48.746;9.236;2023-09-19T07:30:07;0.50;;;0.50;;
5929;SDS011;2990;48.746;9.236;2023-09-19T07:32:34;0.50;;;0.50;;
5929;SDS011;2990;48.746;9.236;2023-09-19T07:35:03;1.33;;;0.60;;
5929;SDS011;2990;48.746;9.236;2023-09-19T07:37:30;0.50;;;0.50;;
5929;SDS011;2990;48.746;9.236;2023-09-19T07:39:58;0.68;;;0.68;;
5929;SDS011;2990;48.746;9.236;2023-09-19T07:42:24;0.57;;;0.57;;
5929;SDS011;2990;48.746;9.236;2023-09-19T07:44:50;2.20;;;0.60;;
5929;SDS011;2990;48.746;9.236;2023-09-19T07:47:16;0.90;;;0.60;;
5929;SDS011;2990;48.746;9.236;2023-09-19T07:49:42;0.60;;;0.60;;
5929;SDS011;2990;48.746;9.236;2023-09-19T07:52:08;0.60;;;0.60;;
5929;SDS011;2990;48.746;9.236;2023-09-19T07:54:35;0.60;;;0.60;;
5929;SDS011;2990;48.746;9.236;2023-09-19T07:57:01;0.43;;;0.43;;
5929;SDS011;2990;48.746;9.236;2023-09-19T07:59:27;0.50;;;0.50;;
5929;SDS011;2990;48.746;9.236;2023-09-19T08:01:53;0.50;;;0.50;;
5929;SDS011;2990;48.746;9.236;2023-09-19T08:04:19;0.50;;;0.50;;
5929;SDS011;2990;48.746;9.236;2023-09-19T08:06:44;0.47;;;0.43;;
5929;SDS011;2990;48.746;9.236;2023-09-19T08:09:10;1.40;;;0.50;;
5929;SDS011;2990;48.746;9.236;2023-09-19T08:11:37;0.50;;;0.50;;
5929;SDS011;2990;48.746;9.236;2023-09-19T08:14:04;0.40;;;0.40;;
5929;SDS011;2990;48.746;9.236;2023-09-19T08:16:30;1.05;;;0.40;;
5929;SDS011;2990;48.746;9.236;2023-09-19T08:18:56;0.73;;;0.40;;
5929;SDS011;2990;48.746;9.236;2023-09-19T08:21:22;1.83;;;0.40;;
5929;SDS011;2990;48.746;9.236;2023-09-19T08:23:49;0.50;;;0.50;;
5929;SDS011;2990;48.746;9.236;2023-09-19T08:26:15;0.45;;;0.45;;
5929;SDS011;2990;48.746;9.236;2023-09-19T08:28:40;1.42;;;0.40;;
5929;SDS011;2990;48.746;9.236;2023-09-19T08:31:06;1.65;;;0.40;;
5929;SDS011;2990;48.746;9.236;2023-09-19T08:33:33;0.77;;;0.40;;
5929;SDS011;2990;48.746;9.236;2023-09-19T08:36:00;3.38;;;0.50;;
5929;SDS011;2990;48.746;9.236;2023-09-19T08:38:29;0.38;;;0.38;;
5929;SDS011;2990;48.746;9.236;2023-09-19T08:40:59;0.30;;;0.30;;
5929;SDS011;2990;48.746;9.236;2023-09-19T08:43:25;0.40;;;0.40;;
5929;SDS011;2990;48.746;9.236;2023-09-19T08:46:14;0.65;;;0.65;;
5929;SDS011;2990;48.746;9.236;2023-09-19T08:48:49;0.40;;;0.40;;
5929;SDS011;2990;48.746;9.236;2023-09-19T08:51:26;0.50;;;0.50;;
5929;SDS011;2990;48.746;9.236;2023-09-19T08:54:03;0.50;;;0.50;;
5929;SDS011;2990;48.746;9.236;2023-09-19T08:56:31;0.40;;;0.40;;
5929;SDS011;2990;48.746;9.236;2023-09-19T08:59:04;1.88;;;0.50;;
5929;SDS011;2990;48.746;9.236;2023-09-19T09:01:32;0.40;;;0.40;;
5929;SDS011;2990;48.746;9.236;2023-09-19T09:03:59;0.40;;;0.40;;
5929;SDS011;2990;48.746;9.236;2023-09-19T09:06:26;0.43;;;0.43;;
5929;SDS011;2990;48.746;9.236;2023-09-19T09:08:53;0.60;;;0.60;;
5929;SDS011;2990;48.746;9.236;2023-09-19T09:11:19;0.95;;;0.40;;
5929;SDS011;2990;48.746;9.236;2023-09-19T09:13:46;1.10;;;0.43;;
5929;SDS011;2990;48.746;9.236;2023-09-19T09:16:12;1.65;;;0.40;;
5929;SDS011;2990;48.746;9.236;2023-09-19T09:18:42;0.50;;;0.50;;
5929;SDS011;2990;48.746;9.236;2023-09-19T09:21:09;0.40;;;0.40;;
5929;SDS011;2990;48.746;9.236;2023-09-19T09:23:35;0.40;;;0.40;;
5929;SDS011;2990;48.746;9.236;2023-09-19T09:26:00;0.40;;;0.40;;
5929;SDS011;2990;48.746;9.236;2023-09-19T09:28:31;1.00;;;0.47;;
5929;SDS011;2990;48.746;9.236;2023-09-19T09:30:58;0.40;;;0.40;;
5929;SDS011;2990;48.746;9.236;2023-09-19T09:33:24;1.25;;;0.50;;
5929;SDS011;2990;48.746;9.236;2023-09-19T09:35:51;0.45;;;0.45;;
5929;SDS011;2990;48.746;9.236;2023-09-19T09:38:21;0.40;;;0.40;;
5929;SDS011;2990;48.746;9.236;2023-09-19T09:40:57;0.65;;;0.32;;
5929;SDS011;2990;48.746;9.236;2023-09-19T09:43:30;0.30;;;0.30;;
5929;SDS011;2990;48.746;9.236;2023-09-19T09:46:10;0.45;;;0.45;;
5929;SDS011;2990;48.746;9.236;2023-09-19T09:49:03;1.38;;;0.60;;
5929;SDS011;2990;48.746;9.236;2023-09-19T09:51:50;1.98;;;0.45;;
5929;SDS011;2990;48.746;9.236;2023-09-19T09:54:32;0.40;;;0.40;;
5929;SDS011;2990;48.746;9.236;2023-09-19T09:57:02;0.40;;;0.40;;
5929;SDS011;2990;48.746;9.236;2023-09-19T09:59:52;0.50;;;0.50;;
5929;SDS011;2990;48.746;9.236;2023-09-19T10:02:19;0.55;;;0.55;;
5929;SDS011;2990;48.746;9.236;2023-09-19T10:04:52;1.27;;;0.40;;
5929;SDS011;2990;48.746;9.236;2023-09-19T10:07:35;0.30;;;0.30;;
5929;SDS011;2990;48.746;9.236;2023-09-19T10:10:05;0.75;;;0.52;;
5929;SDS011;2990;48.746;9.236;2023-09-19T10:12:44;0.40;;;0.40;;
5929;SDS011;2990;48.746;9.236;2023-09-19T10:15:12;0.40;;;0.40;;
5929;SDS011;2990;48.746;9.236;2023-09-19T10:17:45;4.20;;;0.43;;
5929;SDS011;2990;48.746;9.236;2023-09-19T10:20:12;0.80;;;0.80;;
5929;SDS011;2990;48.746;9.236;2023-09-19T10:22:57;0.40;;;0.40;;
5929;SDS011;2990;48.746;9.236;2023-09-19T10:25:27;0.40;;;0.40;;
5929;SDS011;2990;48.746;9.236;2023-09-19T10:27:54;0.32;;;0.32;;
5929;SDS011;2990;48.746;9.236;2023-09-19T10:30:22;1.20;;;0.50;;
5929;SDS011;2990;48.746;9.236;2023-09-19T10:32:53;0.50;;;0.50;;
5929;SDS011;2990;48.746;9.236;2023-09-19T10:35:24;0.30;;;0.30;;
5929;SDS011;2990;48.746;9.236;2023-09-19T10:37:51;0.35;;;0.35;;
5929;SDS011;2990;48.746;9.236;2023-09-19T10:40:19;0.40;;;0.40;;
5929;SDS011;2990;48.746;9.236;2023-09-19T10:42:46;0.30;;;0.30;;
5929;SDS011;2990;48.746;9.236;2023-09-19T10:45:13;0.30;;;0.30;;
5929;SDS011;2990;48.746;9.236;2023-09-19T10:47:41;0.40;;;0.40;;
5929;SDS011;2990;48.746;9.236;2023-09-19T10:50:08;0.40;;;0.40;;
5929;SDS011;2990;48.746;9.236;2023-09-19T10:52:34;0.40;;;0.40;;
5929;SDS011;2990;48.746;9.236;2023-09-19T10:55:07;0.50;;;0.50;;
5929;SDS011;2990;48.746;9.236;2023-09-19T10:57:34;0.35;;;0.35;;
5929;SDS011;2990;48.746;9.236;2023-09-19T11:00:05;0.30;;;0.30;;
5929;SDS011;2990;48.746;9.236;2023-09-19T11:05:37;0.30;;;0.30;;
5929;SDS011;2990;48.746;9.236;2023-09-19T11:08:06;0.30;;;0.30;;
5929;SDS011;2990;48.746;9.236;2023-09-19T11:10:49;0.55;;;0.30;;
5929;SDS011;2990;48.746;9.236;2023-09-19T11:13:29;0.40;;;0.40;;
5929;SDS011;2990;48.746;9.236;2023-09-19T11:16:03;0.30;;;0.30;;
5929;SDS011;2990;48.746;9.236;2023-09-19T11:26:56;0.25;;;0.25;;
5929;SDS011;2990;48.746;9.236;2023-09-19T11:29:38;0.30;;;0.30;;
5929;SDS011;2990;48.746;9.236;2023-09-19T11:32:04;0.40;;;0.40;;
5929;SDS011;2990;48.746;9.236;2023-09-19T11:39:39;0.30;;;0.30;;
5929;SDS011;2990;48.746;9.236;2023-09-19T11:48:21;0.30;;;0.30;;
5929;SDS011;2990;48.746;9.236;2023-09-19T11:50:50;0.30;;;0.30;;
5929;SDS011;2990;48.746;9.236;2023-09-19T11:53:17;0.20;;;0.20;;
5929;SDS011;2990;48.746;9.236;2023-09-19T11:55:44;3.00;;;0.30;;
5929;SDS011;2990;48.746;9.236;2023-09-19T11:58:11;3.83;;;0.30;;
5929;SDS011;2990;48.746;9.236;2023-09-19T12:00:39;0.22;;;0.22;;
5929;SDS011;2990;48.746;9.236;2023-09-19T12:03:09;0.52;;;0.30;;
5929;SDS011;2990;48.746;9.236;2023-09-19T12:05:36;0.25;;;0.25;;
5929;SDS011;2990;48.746;9.236;2023-09-19T12:08:02;0.40;;;0.40;;
5929;SDS011;2990;48.746;9.236;2023-09-19T12:10:30;0.28;;;0.28;;
5929;SDS011;2990;48.746;9.236;2023-09-19T12:12:56;0.40;;;0.40;;
5929;SDS011;2990;48.746;9.236;2023-09-19T12:15:25;1.13;;;0.40;;
5929;SDS011;2990;48.746;9.236;2023-09-19T12:17:59;0.30;;;0.30;;
5929;SDS011;2990;48.746;9.236;2023-09-19T12:20:25;0.30;;;0.30;;
5929;SDS011;2990;48.746;9.236;2023-09-19T12:23:13;0.73;;;0.30;;
5929;SDS011;2990;48.746;9.236;2023-09-19T12:25:43;0.30;;;0.30;;
5929;SDS011;2990;48.746;9.236;2023-09-19T12:28:12;0.30;;;0.30;;
5929;SDS011;2990;48.746;9.236;2023-09-19T12:30:38;1.35;;;0.22;;
5929;SDS011;2990;48.746;9.236;2023-09-19T12:33:06;0.20;;;0.20;;
5929;SDS011;2990;48.746;9.236;2023-09-19T12:35:50;0.70;;;0.30;;
5929;SDS011;2990;48.746;9.236;2023-09-19T12:41:01;0.30;;;0.30;;
5929;SDS011;2990;48.746;9.236;2023-09-19T12:43:30;0.50;;;0.30;;
5929;SDS011;2990;48.746;9.236;2023-09-19T12:46:02;0.30;;;0.30;;
5929;SDS011;2990;48.746;9.236;2023-09-19T12:48:27;0.30;;;0.30;;
5929;SDS011;2990;48.746;9.236;2023-09-19T12:51:03;0.40;;;0.40;;
5929;SDS011;2990;48.746;9.236;2023-09-19T12:53:33;0.32;;;0.32;;
5929;SDS011;2990;48.746;9.236;2023-09-19T12:56:05;0.30;;;0.30;;
5929;SDS011;2990;48.746;9.236;2023-09-19T12:58:33;0.30;;;0.30;;
5929;SDS011;2990;48.746;9.236;2023-09-19T13:01:00;0.30;;;0.30;;
5929;SDS011;2990;48.746;9.236;2023-09-19T13:03:30;0.30;;;0.30;;
5929;SDS011;2990;48.746;9.236;2023-09-19T13:06:03;1.10;;;0.50;;
5929;SDS011;2990;48.746;9.236;2023-09-19T13:08:34;0.40;;;0.40;;
5929;SDS011;2990;48.746;9.236;2023-09-19T13:11:10;0.22;;;0.22;;
5929;SDS011;2990;48.746;9.236;2023-09-19T13:16:18;0.85;;;0.30;;
5929;SDS011;2990;48.746;9.236;2023-09-19T13:18:49;0.30;;;0.30;;
5929;SDS011;2990;48.746;9.236;2023-09-19T13:21:33;0.30;;;0.30;;
5929;SDS011;2990;48.746;9.236;2023-09-19T13:24:24;0.40;;;0.40;;
5929;SDS011;2990;48.746;9.236;2023-09-19T13:26:54;0.30;;;0.30;;
5929;SDS011;2990;48.746;9.236;2023-09-19T13:29:20;1.23;;;0.22;;
5929;SDS011;2990;48.746;9.236;2023-09-19T13:31:46;0.20;;;0.20;;
5929;SDS011;2990;48.746;9.236;2023-09-19T13:34:12;0.30;;;0.30;;
5929;SDS011;2990;48.746;9.236;2023-09-19T13:36:40;0.30;;;0.30;;
5929;SDS011;2990;48.746;9.236;2023-09-19T13:39:07;0.40;;;0.40;;
5929;SDS011;2990;48.746;9.236;2023-09-19T13:41:34;0.30;;;0.30;;
5929;SDS011;2990;48.746;9.236;2023-09-19T13:44:02;0.20;;;0.20;;
5929;SDS011;2990;48.746;9.236;2023-09-19T13:46:28;0.90;;;0.40;;
5929;SDS011;2990;48.746;9.236;2023-09-19T13:48:53;0.47;;;0.40;;
5929;SDS011;2990;48.746;9.236;2023-09-19T13:51:20;0.20;;;0.20;;
5929;SDS011;2990;48.746;9.236;2023-09-19T13:53:49;0.40;;;0.40;;
5929;SDS011;2990;48.746;9.236;2023-09-19T13:56:15;0.30;;;0.30;;
5929;SDS011;2990;48.746;9.236;2023-09-19T13:58:41;0.30;;;0.30;;
5929;SDS011;2990;48.746;9.236;2023-09-19T14:01:07;0.30;;;0.30;;
5929;SDS011;2990;48.746;9.236;2023-09-19T14:03:38;0.30;;;0.30;;
5929;SDS011;2990;48.746;9.236;2023-09-19T14:06:11;0.30;;;0.30;;
5929;SDS011;2990;48.746;9.236;2023-09-19T14:08:37;0.30;;;0.30;;
5929;SDS011;2990;48.746;9.236;2023-09-19T14:11:07;0.80;;;0.50;;
5929;SDS011;2990;48.746;9.236;2023-09-19T14:13:33;0.25;;;0.25;;
5929;SDS011;2990;48.746;9.236;2023-09-19T14:16:03;0.32;;;0.32;;
5929;SDS011;2990;48.746;9.236;2023-09-19T14:18:31;0.25;;;0.25;;
5929;SDS011;2990;48.746;9.236;2023-09-19T14:20:57;0.93;;;0.32;;
5929;SDS011;2990;48.746;9.236;2023-09-19T14:23:23;0.22;;;0.22;;
5929;SDS011;2990;48.746;9.236;2023-09-19T14:25:50;0.40;;;0.40;;
5929;SDS011;2990;48.746;9.236;2023-09-19T14:28:17;0.40;;;0.40;;
5929;SDS011;2990;48.746;9.236;2023-09-19T14:30:43;0.28;;;0.28;;
5929;SDS011;2990;48.746;9.236;2023-09-19T14:33:08;0.30;;;0.30;;
5929;SDS011;2990;48.746;9.236;2023-09-19T14:35:36;0.38;;;0.38;;
5929;SDS011;2990;48.746;9.236;2023-09-19T14:38:02;0.40;;;0.40;;
5929;SDS011;2990;48.746;9.236;2023-09-19T14:40:28;0.35;;;0.30;;
5929;SDS011;2990;48.746;9.236;2023-09-19T14:42:53;0.20;;;0.20;;
5929;SDS011;2990;48.746;9.236;2023-09-19T15:06:02;0.40;;;0.40;;
5929;SDS011;2990;48.746;9.236;2023-09-19T15:08:43;0.40;;;0.40;;
5929;SDS011;2990;48.746;9.236;2023-09-19T15:11:18;0.30;;;0.30;;
5929;SDS011;2990;48.746;9.236;2023-09-19T16:15:17;0.30;;;0.30;;
5929;SDS011;2990;48.746;9.236;2023-09-19T16:17:44;0.25;;;0.25;;
5929;SDS011;2990;48.746;9.236;2023-09-19T16:20:10;1.90;;;0.85;;
5929;SDS011;2990;48.746;9.236;2023-09-19T16:22:37;0.38;;;0.38;;
5929;SDS011;2990;48.746;9.236;2023-09-19T16:25:04;1.10;;;0.30;;
5929;SDS011;2990;48.746;9.236;2023-09-19T16:27:30;0.55;;;0.30;;
5929;SDS011;2990;48.746;9.236;2023-09-19T16:29:56;0.35;;;0.35;;
5929;SDS011;2990;48.746;9.236;2023-09-19T16:32:21;0.30;;;0.30;;
5929;SDS011;2990;48.746;9.236;2023-09-19T16:34:47;0.40;;;0.40;;
5929;SDS011;2990;48.746;9.236;2023-09-19T17:01:48;0.30;;;0.30;;
5929;SDS011;2990;48.746;9.236;2023-09-19T17:04:14;0.32;;;0.32;;
5929;SDS011;2990;48.746;9.236;2023-09-19T17:06:40;0.82;;;0.40;;
5929;SDS011;2990;48.746;9.236;2023-09-19T17:09:11;0.30;;;0.30;;
5929;SDS011;2990;48.746;9.236;2023-09-19T17:11:37;0.40;;;0.40;;
5929;SDS011;2990;48.746;9.236;2023-09-19T17:14:03;0.40;;;0.40;;
5929;SDS011;2990;48.746;9.236;2023-09-19T17:16:29;0.30;;;0.30;;
5929;SDS011;2990;48.746;9.236;2023-09-19T17:18:55;0.30;;;0.30;;
5929;SDS011;2990;48.746;9.236;2023-09-19T17:21:22;0.30;;;0.30;;
5929;SDS011;2990;48.746;9.236;2023-09-19T17:23:51;0.75;;;0.40;;
5929;SDS011;2990;48.746;9.236;2023-09-19T17:26:18;0.43;;;0.43;;
5929;SDS011;2990;48.746;9.236;2023-09-19T17:28:48;0.30;;;0.30;;
5929;SDS011;2990;48.746;9.236;2023-09-19T17:31:14;0.50;;;0.50;;
5929;SDS011;2990;48.746;9.236;2023-09-19T17:33:41;0.60;;;0.60;;
5929;SDS011;2990;48.746;9.236;2023-09-19T17:36:09;0.38;;;0.38;;
5929;SDS011;2990;48.746;9.236;2023-09-19T17:38:38;0.43;;;0.43;;
5929;SDS011;2990;48.746;9.236;2023-09-19T17:41:05;0.40;;;0.40;;
5929;SDS011;2990;48.746;9.236;2023-09-19T17:43:33;0.32;;;0.32;;
5929;SDS011;2990;48.746;9.236;2023-09-19T17:46:09;1.00;;;0.45;;
5929;SDS011;2990;48.746;9.236;2023-09-19T17:48:35;0.40;;;0.40;;